createdAt,value
2017-09-03T00:03:32.000Z,21.9
2017-09-03T00:13:33.000Z,21.87
2017-09-03T00:23:32.000Z,21.85
2017-09-03T00:33:32.000Z,21.8
2017-09-03T00:43:32.000Z,21.77
2017-09-03T00:53:32.000Z,21.71
2017-09-03T01:03:32.000Z,21.69
2017-09-03T01:13:32.000Z,21.65
2017-09-03T01:23:32.000Z,21.59
2017-09-03T01:33:32.000Z,21.56
2017-09-03T01:43:32.000Z,21.52
2017-09-03T01:53:32.000Z,21.48
2017-09-03T02:03:32.000Z,21.44
2017-09-03T02:13:32.000Z,21.42
2017-09-03T02:23:32.000Z,21.39
2017-09-03T02:33:32.000Z,21.28
2017-09-03T02:43:32.000Z,21.28
2017-09-03T02:53:32.000Z,21.25
2017-09-03T03:03:33.000Z,21.22
2017-09-03T03:13:33.000Z,21.2
2017-09-03T03:23:33.000Z,21.15
2017-09-03T03:33:33.000Z,21.11
2017-09-03T03:43:33.000Z,21.09
2017-09-03T03:53:33.000Z,21.05
2017-09-03T04:03:33.000Z,21.02
2017-09-03T04:13:33.000Z,20.96
2017-09-03T04:23:33.000Z,20.94
2017-09-03T04:33:33.000Z,20.93
2017-09-03T04:43:33.000Z,20.91
2017-09-03T04:53:33.000Z,20.88
2017-09-03T05:03:33.000Z,20.85
2017-09-03T05:13:33.000Z,20.84
2017-09-03T05:23:33.000Z,20.83
2017-09-03T05:33:33.000Z,20.8
2017-09-03T05:43:33.000Z,20.8
2017-09-03T05:53:33.000Z,20.75
2017-09-03T06:03:33.000Z,20.72
2017-09-03T06:13:33.000Z,20.76
2017-09-03T06:23:33.000Z,20.75
2017-09-03T06:33:33.000Z,20.79
2017-09-03T06:43:33.000Z,20.8
2017-09-03T06:53:33.000Z,20.84
2017-09-03T07:03:33.000Z,20.94
2017-09-03T07:13:33.000Z,20.99
2017-09-03T07:23:33.000Z,20.98
2017-09-03T07:33:33.000Z,21.03
2017-09-03T07:43:33.000Z,21.11
2017-09-03T07:53:33.000Z,21.24
2017-09-03T08:03:33.000Z,21.26
2017-09-03T08:13:33.000Z,21.37
2017-09-03T08:23:33.000Z,21.53
2017-09-03T08:33:33.000Z,21.65
2017-09-03T08:43:33.000Z,21.78
2017-09-03T08:53:33.000Z,22.02
2017-09-03T09:03:33.000Z,22
2017-09-03T09:13:33.000Z,22.06
2017-09-03T09:23:33.000Z,22.08
2017-09-03T09:33:33.000Z,22.27
2017-09-03T09:43:33.000Z,22.44
2017-09-03T09:53:33.000Z,22.65
2017-09-03T10:03:33.000Z,22.8
2017-09-03T10:13:33.000Z,22.91
2017-09-03T10:23:33.000Z,23.07
2017-09-03T10:33:33.000Z,23.35
2017-09-03T10:43:33.000Z,23.03
2017-09-03T10:53:34.000Z,23.05
2017-09-03T11:03:34.000Z,23.1
2017-09-03T11:13:34.000Z,22.97
2017-09-03T11:33:34.000Z,23.21
2017-09-03T11:43:34.000Z,23.28
2017-09-03T11:53:34.000Z,23.36
2017-09-03T12:03:34.000Z,23.25
2017-09-03T12:13:34.000Z,23.21
2017-09-03T12:23:34.000Z,23.23
2017-09-03T12:33:34.000Z,23.3
2017-09-03T12:43:34.000Z,23.39
2017-09-03T12:53:34.000Z,24.06
2017-09-03T13:03:34.000Z,23.99
2017-09-03T13:13:34.000Z,23.79
2017-09-03T13:23:34.000Z,23.67
2017-09-03T13:33:34.000Z,23.6
2017-09-03T13:43:34.000Z,23.39
2017-09-03T13:53:34.000Z,23.39
2017-09-03T14:03:34.000Z,23.38
2017-09-03T14:13:34.000Z,23.32
2017-09-03T14:23:34.000Z,23.35
2017-09-03T14:33:34.000Z,23.4
2017-09-03T14:43:34.000Z,23.39
2017-09-03T14:53:34.000Z,23.37
2017-09-03T15:03:34.000Z,23.34
2017-09-03T15:13:34.000Z,23.37
2017-09-03T15:23:36.000Z,23.35
2017-09-03T15:33:34.000Z,23.33
2017-09-03T15:43:34.000Z,23.33
2017-09-03T15:53:34.000Z,23.57
2017-09-03T16:03:34.000Z,23.64
2017-09-03T16:13:34.000Z,23.68
2017-09-03T16:23:34.000Z,23.53
2017-09-03T16:33:34.000Z,23.53
2017-09-03T16:43:34.000Z,23.54
2017-09-03T16:53:34.000Z,23.33
2017-09-03T17:03:34.000Z,23.19
2017-09-03T17:13:34.000Z,23.14
2017-09-03T17:23:34.000Z,23.05
2017-09-03T17:33:35.000Z,23.07
2017-09-03T17:43:34.000Z,23.1
2017-09-03T17:53:34.000Z,23.11
2017-09-03T18:03:34.000Z,22.98
2017-09-03T18:13:34.000Z,23.02
2017-09-03T18:23:34.000Z,23
2017-09-03T18:33:34.000Z,22.87
2017-09-03T18:43:34.000Z,22.9
2017-09-03T18:53:34.000Z,22.74
2017-09-03T19:03:34.000Z,22.76
2017-09-03T19:13:35.000Z,22.99
2017-09-03T19:23:35.000Z,23.02
2017-09-03T19:33:35.000Z,23.04
2017-09-03T19:43:35.000Z,22.96
2017-09-03T19:53:35.000Z,22.98
2017-09-03T20:03:35.000Z,22.94
2017-09-03T20:13:35.000Z,22.89
2017-09-03T20:23:35.000Z,22.85
2017-09-03T20:33:35.000Z,22.81
2017-09-03T20:43:35.000Z,22.77
2017-09-03T20:53:35.000Z,22.7
2017-09-03T21:03:35.000Z,22.67
2017-09-03T21:13:35.000Z,22.62
2017-09-03T21:23:35.000Z,22.58
2017-09-03T21:33:35.000Z,22.56
2017-09-03T21:43:35.000Z,22.47
2017-09-03T21:53:35.000Z,22.45
2017-09-03T22:03:35.000Z,22.4
2017-09-03T22:13:35.000Z,22.37
2017-09-03T22:23:35.000Z,22.34
2017-09-03T22:33:35.000Z,22.31
2017-09-03T22:43:36.000Z,22.28
2017-09-03T22:53:35.000Z,22.24
2017-09-03T23:03:35.000Z,22.2
2017-09-03T23:13:35.000Z,22.17
2017-09-03T23:23:35.000Z,22.12
2017-09-03T23:33:35.000Z,22.09
2017-09-03T23:43:35.000Z,22.02
2017-09-03T23:53:35.000Z,22.01
